Time;durP1;ratioP1;P1;durP2;ratioP2;P2;SDS_P1;SDS_P2;PMS_P1;PMS_P2;Temp;Humidity;BMP_temperature;BMP_pressure;BME280_temperature;BME280_humidity;BME280_pressure;Samples;Min_cycle;Max_cycle;Signal;HPM_P1;HPM_P2
2023/07/08 00:01:24;;;;;;;;;;;;;;;17.78;89.89;101660.03;10440200;28;19971;-64
2023/07/08 00:06:26;;;;;;;;;;;;;;;17.81;91.23;101649.22;10440114;28;19931;-64
2023/07/08 00:11:29;;;;;;;;;;;;;;;17.65;92.76;101644.19;10457424;28;20311;-64
2023/07/08 00:16:31;;;;;;;;;;;;;;;17.67;92.59;101647.59;10439941;28;20015;-64
2023/07/08 00:21:33;;;;;;;;;;;;;;;17.52;94.94;101636.34;10439311;28;19924;-64
2023/07/08 00:26:36;;;;;;;;;;;;;;;17.52;94.81;101638.16;10457197;28;19925;-65
2023/07/08 00:31:38;;;;;;;;;;;;;;;17.58;94.92;101638.50;10457420;28;19925;-64
2023/07/08 00:36:40;;;;;;;;;;;;;;;17.41;96.67;101642.41;10457089;28;20306;-64
2023/07/08 00:41:42;;;;;;;;;;;;;;;17.46;95.57;101627.03;10456849;28;19925;-64
2023/07/08 00:46:48;;;;;;;;;;;;;;;17.38;94.44;101621.47;10439099;28;19951;-64
2023/07/08 00:51:50;;;;;;;;;;;;;;;17.25;96.08;101610.91;10457344;28;19925;-64
2023/07/08 00:56:59;;;;;;;;;;;;;;;17.34;94.41;101625.28;10456746;28;20123;-64
2023/07/08 01:02:03;;;;;;;;;;;;;;;17.18;95.12;101620.28;10438856;28;19960;-64
2023/07/08 01:07:07;;;;;;;;;;;;;;;17.19;95.19;101623.75;10456603;28;20015;-64
2023/07/08 01:12:11;;;;;;;;;;;;;;;17.11;96.46;101621.66;10438601;28;19974;-64
2023/07/08 01:17:13;;;;;;;;;;;;;;;17.01;98.36;101610.03;10456413;28;19931;-64
2023/07/08 01:22:16;;;;;;;;;;;;;;;16.99;97.46;101610.16;10456131;28;19971;-64
2023/07/08 01:27:18;;;;;;;;;;;;;;;16.98;95.72;101613.75;10456053;28;19924;-64
2023/07/08 01:32:21;;;;;;;;;;;;;;;17.15;92.58;101609.06;10459192;28;19996;-63
2023/07/08 01:37:23;;;;;;;;;;;;;;;16.95;95.94;101616.63;10463617;28;19924;-63
2023/07/08 01:42:25;;;;;;;;;;;;;;;17.00;97.44;101603.06;10445897;28;19929;-64
2023/07/08 01:47:27;;;;;;;;;;;;;;;16.97;96.57;101601.47;10463325;28;19925;-64
2023/07/08 01:52:30;;;;;;;;;;;;;;;17.02;95.61;101601.16;10445347;28;20384;-64
2023/07/08 01:57:32;;;;;;;;;;;;;;;16.99;97.62;101593.44;10461694;28;19947;-64
2023/07/08 02:02:34;;;;;;;;;;;;;;;16.91;98.02;101578.09;10462530;28;19929;-64
2023/07/08 02:07:36;;;;;;;;;;;;;;;16.95;98.03;101576.94;10462757;28;20299;-64
2023/07/08 02:12:39;;;;;;;;;;;;;;;16.82;98.77;101568.16;10462361;28;19924;-64
2023/07/08 02:17:41;;;;;;;;;;;;;;;16.86;98.98;101562.59;10444305;28;19925;-64
2023/07/08 02:22:43;;;;;;;;;;;;;;;16.79;98.25;101571.88;10461979;28;19924;-64
2023/07/08 02:27:45;;;;;;;;;;;;;;;16.77;99.78;101575.59;10461637;28;19933;-64
2023/07/08 02:32:56;;;;;;;;;;;;;;;16.65;100.00;101570.22;10461638;28;19924;-64
2023/07/08 02:37:58;;;;;;;;;;;;;;;16.54;100.00;101564.81;10461405;28;19952;-64
2023/07/08 02:43:01;;;;;;;;;;;;;;;16.54;100.00;101559.53;10460703;28;20305;-64
2023/07/08 02:48:03;;;;;;;;;;;;;;;16.56;100.00;101556.78;10460869;28;20364;-64
2023/07/08 02:53:06;;;;;;;;;;;;;;;16.38;100.00;101548.38;10460791;28;19929;-63
2023/07/08 02:58:09;;;;;;;;;;;;;;;16.35;100.00;101560.00;10460528;28;19931;-64
2023/07/08 03:03:11;;;;;;;;;;;;;;;16.39;99.52;101563.25;10460274;28;19925;-64
2023/07/08 03:08:13;;;;;;;;;;;;;;;16.23;100.00;101552.94;10460268;28;19925;-64
2023/07/08 03:13:16;;;;;;;;;;;;;;;16.29;100.00;101547.19;10459703;28;19929;-64
2023/07/08 03:18:18;;;;;;;;;;;;;;;16.27;99.51;101554.41;10459582;28;20372;-64
2023/07/08 03:23:20;;;;;;;;;;;;;;;16.15;100.00;101553.44;10459355;28;19925;-63
2023/07/08 03:28:22;;;;;;;;;;;;;;;16.10;100.00;101560.84;10459499;28;19925;-64
2023/07/08 03:33:25;;;;;;;;;;;;;;;16.11;100.00;101566.03;10459103;28;19925;-64
2023/07/08 03:38:27;;;;;;;;;;;;;;;16.15;100.00;101564.88;10458869;28;20312;-64
2023/07/08 03:43:29;;;;;;;;;;;;;;;16.13;100.00;101558.00;10458915;28;19925;-64
2023/07/08 03:48:32;;;;;;;;;;;;;;;16.01;100.00;101567.59;10458641;28;19952;-64
2023/07/08 03:53:35;;;;;;;;;;;;;;;16.01;100.00;101562.31;10457680;28;19931;-64
2023/07/08 03:58:37;;;;;;;;;;;;;;;16.00;100.00;101554.50;10458132;28;20379;-64
2023/07/08 04:03:39;;;;;;;;;;;;;;;16.07;100.00;101563.69;10457907;28;19924;-64
2023/07/08 04:08:42;;;;;;;;;;;;;;;16.00;100.00;101570.34;10458025;28;19967;-64
2023/07/08 04:13:44;;;;;;;;;;;;;;;16.04;100.00;101566.53;10439937;28;19964;-64
2023/07/08 04:18:47;;;;;;;;;;;;;;;16.03;100.00;101565.69;10457634;28;19928;-64
2023/07/08 04:23:49;;;;;;;;;;;;;;;16.17;100.00;101567.41;10439847;28;19924;-64
2023/07/08 04:28:51;;;;;;;;;;;;;;;16.26;100.00;101572.06;10457178;28;20066;-64
2023/07/08 04:33:54;;;;;;;;;;;;;;;16.38;99.40;101573.00;10457236;28;19979;-64
2023/07/08 04:38:57;;;;;;;;;;;;;;;16.66;97.08;101561.34;10456985;28;20019;-64
2023/07/08 04:44:02;;;;;;;;;;;;;;;16.58;98.31;101571.59;10457044;28;20016;-64
2023/07/08 04:49:05;;;;;;;;;;;;;;;16.66;100.00;101569.28;10456854;28;19971;-64
2023/07/08 04:54:07;;;;;;;;;;;;;;;16.72;100.00;101581.19;10457232;28;19924;-64
2023/07/08 04:59:11;;;;;;;;;;;;;;;16.88;98.70;101581.84;10438819;28;20439;-64
2023/07/08 05:04:14;;;;;;;;;;;;;;;17.19;91.65;101573.47;10456408;28;19925;-64
2023/07/08 05:09:16;;;;;;;;;;;;;;;17.30;87.98;101570.03;10446988;28;19929;-64
2023/07/08 05:14:19;;;;;;;;;;;;;;;17.45;87.14;101572.41;10464281;28;19978;-64
2023/07/08 05:19:23;;;;;;;;;;;;;;;17.54;88.06;101572.69;10464265;28;19947;-64
2023/07/08 05:24:25;;;;;;;;;;;;;;;17.67;91.81;101554.06;10464225;28;19925;-64
2023/07/08 05:29:28;;;;;;;;;;;;;;;17.61;91.27;101547.44;10471908;22;19935;-62
2023/07/08 05:34:30;;;;;;;;;;;;;;;17.83;89.46;101547.47;10464215;28;19932;-61
2023/07/08 05:39:32;;;;;;;;;;;;;;;17.73;94.14;101541.19;10463456;28;19925;-62
2023/07/08 05:44:34;;;;;;;;;;;;;;;17.99;85.97;101552.47;10463704;28;19924;-62
2023/07/08 05:49:38;;;;;;;;;;;;;;;18.39;83.76;101559.13;10463238;28;19968;-61
2023/07/08 05:54:40;;;;;;;;;;;;;;;18.34;84.79;101556.88;10463081;28;20367;-62
2023/07/08 05:59:45;;;;;;;;;;;;;;;18.26;84.97;101564.56;10445242;28;19925;-62
2023/07/08 06:04:48;;;;;;;;;;;;;;;18.84;82.22;101564.44;10462637;28;19928;-62
2023/07/08 06:09:51;;;;;;;;;;;;;;;18.87;83.13;101566.00;10462636;28;19932;-62
2023/07/08 06:14:53;;;;;;;;;;;;;;;19.27;81.39;101565.44;10444548;28;20294;-62
2023/07/08 06:19:55;;;;;;;;;;;;;;;19.33;82.81;101561.41;10461522;28;19925;-62
2023/07/08 06:24:57;;;;;;;;;;;;;;;19.63;81.49;101565.97;10461749;28;20384;-64
2023/07/08 06:29:59;;;;;;;;;;;;;;;19.67;79.58;101556.81;10461646;28;19924;-62
2023/07/08 06:35:02;;;;;;;;;;;;;;;19.76;79.02;101550.72;10461539;28;20011;-62
2023/07/08 06:40:04;;;;;;;;;;;;;;;20.23;75.02;101553.78;10443630;28;19931;-62
2023/07/08 06:45:07;;;;;;;;;;;;;;;20.18;75.26;101552.50;10461205;28;19925;-62
2023/07/08 06:50:09;;;;;;;;;;;;;;;20.49;73.20;101552.50;10443277;28;19925;-62
2023/07/08 06:55:12;;;;;;;;;;;;;;;20.52;74.02;101547.75;10443268;28;20019;-62
2023/07/08 07:00:15;;;;;;;;;;;;;;;20.91;72.63;101550.56;10460246;28;20406;-62
2023/07/08 07:05:17;;;;;;;;;;;;;;;21.15;70.95;101544.84;10460341;28;19978;-61
2023/07/08 07:10:21;;;;;;;;;;;;;;;21.48;70.67;101548.06;10460152;28;19971;-61
2023/07/08 07:15:24;;;;;;;;;;;;;;;21.75;68.54;101545.66;10459864;28;19932;-62
2023/07/08 07:20:27;;;;;;;;;;;;;;;22.17;66.01;101553.28;10459669;28;20003;-62
2023/07/08 07:25:29;;;;;;;;;;;;;;;22.64;65.67;101547.91;10441828;28;20017;-62
2023/07/08 07:30:31;;;;;;;;;;;;;;;22.81;63.83;101538.25;10458293;28;20288;-62
2023/07/08 07:35:33;;;;;;;;;;;;;;;23.87;61.57;101530.38;10441481;28;20012;-62
2023/07/08 07:40:36;;;;;;;;;;;;;;;23.82;61.01;101532.69;10458815;28;19925;-62
2023/07/08 07:45:38;;;;;;;;;;;;;;;24.74;60.90;101527.56;10458990;28;19936;-62
2023/07/08 07:50:42;;;;;;;;;;;;;;;24.75;59.49;101521.25;10458367;28;20292;-62
2023/07/08 07:55:45;;;;;;;;;;;;;;;24.46;59.04;101516.25;10440909;28;19947;-62
2023/07/08 08:00:47;;;;;;;;;;;;;;;25.19;58.23;101512.91;10458217;28;19924;-63
2023/07/08 08:05:49;;;;;;;;;;;;;;;26.01;57.53;101513.84;10457913;28;20402;-63
2023/07/08 08:10:51;;;;;;;;;;;;;;;25.40;54.91;101517.81;10457896;28;19925;-62
2023/07/08 08:15:57;;;;;;;;;;;;;;;26.48;55.82;101518.41;10457615;28;19925;-62
2023/07/08 08:21:00;;;;;;;;;;;;;;;26.30;53.70;101521.31;10439957;28;19925;-63
2023/07/08 08:26:02;;;;;;;;;;;;;;;27.48;53.38;101531.00;10457108;28;19924;-63
2023/07/08 08:31:04;;;;;;;;;;;;;;;27.03;52.07;101538.03;10439431;28;20394;-63
2023/07/08 08:36:06;;;;;;;;;;;;;;;27.76;53.14;101543.84;10457143;28;19924;-63
2023/07/08 08:41:13;;;;;;;;;;;;;;;27.93;50.72;101542.69;10438841;28;20009;-63
2023/07/08 08:46:15;;;;;;;;;;;;;;;28.28;49.94;101534.88;10456759;28;19968;-63
2023/07/08 08:51:17;;;;;;;;;;;;;;;28.65;47.18;101540.34;10456513;28;20434;-63
2023/07/08 08:56:20;;;;;;;;;;;;;;;28.71;46.83;101539.56;10456788;28;19925;-63
2023/07/08 09:01:23;;;;;;;;;;;;;;;29.21;46.80;101543.22;10438919;28;19924;-63
2023/07/08 09:06:33;;;;;;;;;;;;;;;28.65;46.61;101543.03;10456261;28;19924;-63
2023/07/08 09:11:48;;;;;;;;;;;;;;;29.60;46.38;101532.94;10438820;28;20299;-63
2023/07/08 09:17:09;;;;;;;;;;;;;;;30.31;48.17;101532.78;10438399;28;19931;-63
2023/07/08 09:22:20;;;;;;;;;;;;;;;29.94;48.10;101525.91;10456272;28;19931;-63
2023/07/08 09:27:22;;;;;;;;;;;;;;;29.78;44.44;101529.78;10455730;28;20276;-63
2023/07/08 09:32:25;;;;;;;;;;;;;;;30.66;43.94;101523.75;10456062;28;19931;-63
2023/07/08 09:37:32;;;;;;;;;;;;;;;30.80;45.28;101527.31;10455928;28;20374;-63
2023/07/08 09:42:34;;;;;;;;;;;;;;;30.33;44.72;101521.78;10455576;28;19932;-68
2023/07/08 09:47:37;;;;;;;;;;;;;;;30.30;45.12;101519.47;10437981;28;20351;-68
2023/07/08 09:52:40;;;;;;;;;;;;;;;30.19;43.47;101528.97;10439697;28;19932;-68
2023/07/08 09:57:43;;;;;;;;;;;;;;;31.32;42.84;101528.47;10445198;28;20473;-68
2023/07/08 10:02:46;;;;;;;;;;;;;;;31.12;42.09;101533.88;10445069;28;19925;-68
2023/07/08 10:07:49;;;;;;;;;;;;;;;31.97;42.71;101535.88;10462642;28;19933;-68
2023/07/08 10:12:53;;;;;;;;;;;;;;;31.18;42.93;101538.44;10444805;28;20279;-68
2023/07/08 10:17:56;;;;;;;;;;;;;;;32.25;42.53;101535.59;10444443;28;19925;-68
2023/07/08 10:22:58;;;;;;;;;;;;;;;32.28;41.07;101534.34;10461872;28;19928;-68
2023/07/08 10:28:07;;;;;;;;;;;;;;;33.61;42.06;101527.22;10461560;28;19925;-69
2023/07/08 10:33:19;;;;;;;;;;;;;;;33.59;40.69;101523.88;10444051;28;19931;-69
2023/07/08 10:38:24;;;;;;;;;;;;;;;34.28;40.39;101518.34;10443877;28;19931;-68
2023/07/08 10:43:44;;;;;;;;;;;;;;;33.82;40.28;101515.94;10461308;28;19956;-68
2023/07/08 10:48:52;;;;;;;;;;;;;;;34.19;39.47;101498.78;10460905;28;20277;-68
2023/07/08 10:53:54;;;;;;;;;;;;;;;34.06;38.73;101495.19;10460731;28;20372;-68
2023/07/08 10:59:05;;;;;;;;;;;;;;;33.23;40.53;101510.00;10460511;28;19975;-68
2023/07/08 11:04:11;;;;;;;;;;;;;;;34.75;39.15;101503.09;10442796;28;19929;-68
2023/07/08 11:09:15;;;;;;;;;;;;;;;35.35;38.46;101498.56;10460264;28;19924;-69
2023/07/08 11:14:23;;;;;;;;;;;;;;;35.16;39.82;101497.81;10426087;28;19929;-68
2023/07/08 11:19:32;;;;;;;;;;;;;;;34.15;36.47;101509.28;10442047;28;19925;-73
2023/07/08 11:24:37;;;;;;;;;;;;;;;34.95;38.54;101505.50;10441920;28;19924;-69
2023/07/08 11:29:42;;;;;;;;;;;;;;;36.31;36.82;101500.06;10458973;28;20291;-69
2023/07/08 11:34:44;;;;;;;;;;;;;;;36.23;37.17;101501.28;10441741;28;19925;-70
2023/07/08 11:39:53;;;;;;;;;;;;;;;36.37;37.12;101502.66;10441531;28;19924;-70
2023/07/08 11:44:56;;;;;;;;;;;;;;;34.41;37.55;101501.88;10441252;28;19925;-69
2023/07/08 11:49:58;;;;;;;;;;;;;;;34.60;38.85;101499.94;10440938;28;19975;-70
2023/07/08 11:55:12;;;;;;;;;;;;;;;35.99;37.99;101490.44;10440866;28;19931;-70
2023/07/08 12:00:17;;;;;;;;;;;;;;;35.08;36.50;101485.38;10440575;28;19932;-70
2023/07/08 12:05:28;;;;;;;;;;;;;;;36.63;37.60;101478.56;10458300;28;20360;-70
2023/07/08 12:10:35;;;;;;;;;;;;;;;36.61;37.73;101469.81;10458130;28;19964;-71
2023/07/08 12:15:37;;;;;;;;;;;;;;;37.00;35.63;101470.78;10439598;28;20000;-70
2023/07/08 12:20:40;;;;;;;;;;;;;;;37.88;35.60;101480.22;10457684;28;19924;-69
2023/07/08 12:25:42;;;;;;;;;;;;;;;37.25;36.18;101465.97;10457164;28;20391;-69
2023/07/08 12:30:45;;;;;;;;;;;;;;;37.31;35.34;101452.13;10439464;28;19925;-70
2023/07/08 12:35:48;;;;;;;;;;;;;;;36.87;35.63;101457.47;10439500;28;19925;-70
2023/07/08 12:40:50;;;;;;;;;;;;;;;36.04;35.12;101465.19;10456781;28;19931;-70
2023/07/08 12:45:52;;;;;;;;;;;;;;;36.68;30.62;101456.81;10456678;28;20372;-69
2023/07/08 12:50:55;;;;;;;;;;;;;;;36.98;31.90;101458.44;10456747;28;19925;-69
2023/07/08 12:55:57;;;;;;;;;;;;;;;36.60;32.51;101449.91;10456686;28;19925;-69
2023/07/08 13:01:01;;;;;;;;;;;;;;;36.62;33.33;101444.19;10438915;28;20477;-69
2023/07/08 13:06:03;;;;;;;;;;;;;;;38.27;33.21;101442.66;10438793;28;20277;-69
2023/07/08 13:11:06;;;;;;;;;;;;;;;38.00;32.41;101431.69;10438959;28;19964;-70
2023/07/08 13:16:08;;;;;;;;;;;;;;;36.21;33.85;101436.09;10438619;28;19929;-69
2023/07/08 13:21:12;;;;;;;;;;;;;;;37.43;34.72;101438.38;10456086;28;20375;-69
2023/07/08 13:26:18;;;;;;;;;;;;;;;36.94;31.56;101430.81;10438430;28;19925;-69
2023/07/08 13:31:23;;;;;;;;;;;;;;;37.89;33.32;101438.94;10446516;28;19931;-69
2023/07/08 13:36:37;;;;;;;;;;;;;;;38.14;31.75;101437.59;10464136;28;19971;-68
2023/07/08 13:41:41;;;;;;;;;;;;;;;37.61;31.51;101434.50;10445963;28;20283;-69
2023/07/08 13:46:54;;;;;;;;;;;;;;;36.83;30.38;101436.38;10463977;28;20376;-68
2023/07/08 13:52:15;;;;;;;;;;;;;;;37.48;29.58;101432.16;10445740;28;19925;-68
2023/07/08 13:57:18;;;;;;;;;;;;;;;37.85;29.16;101435.09;10445742;28;19924;-68
2023/07/08 14:02:22;;;;;;;;;;;;;;;38.56;30.22;101439.63;10462808;28;19925;-69
2023/07/08 14:07:25;;;;;;;;;;;;;;;38.40;29.49;101433.22;10444949;28;19925;-69
2023/07/08 14:12:27;;;;;;;;;;;;;;;37.15;31.19;101433.84;10462080;28;19924;-68
2023/07/08 14:17:30;;;;;;;;;;;;;;;38.78;29.13;101425.06;10462647;28;20011;-69
2023/07/08 14:22:32;;;;;;;;;;;;;;;37.33;29.77;101427.31;10461974;28;20035;-68
2023/07/08 14:27:34;;;;;;;;;;;;;;;38.40;28.25;101425.00;10461853;28;19933;-69
2023/07/08 14:32:36;;;;;;;;;;;;;;;38.04;27.13;101423.81;10444539;28;20400;-69
2023/07/08 14:37:39;;;;;;;;;;;;;;;36.36;30.39;101418.38;10460909;28;19956;-68
2023/07/08 14:42:41;;;;;;;;;;;;;;;37.34;29.06;101429.78;10443708;28;19939;-68
2023/07/08 14:47:43;;;;;;;;;;;;;;;38.31;29.20;101436.69;10460945;28;19924;-68
2023/07/08 14:52:46;;;;;;;;;;;;;;;38.75;28.72;101436.53;10443387;28;19929;-69
2023/07/08 14:57:48;;;;;;;;;;;;;;;37.76;29.00;101442.09;10443116;28;20019;-68
2023/07/08 15:02:51;;;;;;;;;;;;;;;37.77;29.54;101440.19;10443088;28;20380;-69
2023/07/08 15:07:54;;;;;;;;;;;;;;;38.07;29.61;101432.31;10442579;28;19925;-69
2023/07/08 15:12:57;;;;;;;;;;;;;;;38.32;28.43;101433.69;10442124;28;19932;-68
2023/07/08 15:17:59;;;;;;;;;;;;;;;37.07;28.69;101434.28;10459839;28;19928;-68
2023/07/08 15:23:02;;;;;;;;;;;;;;;36.78;30.60;101437.94;10442568;28;19925;-68
2023/07/08 15:28:04;;;;;;;;;;;;;;;36.88;33.20;101441.91;10441533;28;19947;-69
2023/07/08 15:33:08;;;;;;;;;;;;;;;37.63;31.60;101435.06;10459322;28;19931;-69
2023/07/08 15:38:10;;;;;;;;;;;;;;;37.60;28.78;101434.75;10441695;28;20103;-68
2023/07/08 15:43:13;;;;;;;;;;;;;;;37.21;32.53;101429.34;10441027;28;19947;-68
2023/07/08 15:48:16;;;;;;;;;;;;;;;36.78;31.93;101431.66;10440923;28;20295;-68
2023/07/08 15:53:18;;;;;;;;;;;;;;;36.02;34.05;101426.47;10440080;28;19925;-68
2023/07/08 15:58:31;;;;;;;;;;;;;;;34.59;37.26;101427.59;10457407;28;21353;-68
2023/07/08 16:03:35;;;;;;;;;;;;;;;35.14;40.05;101432.75;10457968;28;19924;-68
2023/07/08 16:08:38;;;;;;;;;;;;;;;33.98;42.69;101434.94;10457826;28;20011;-68
2023/07/08 16:13:40;;;;;;;;;;;;;;;34.58;42.88;101424.06;10457590;28;20020;-68
2023/07/08 16:18:43;;;;;;;;;;;;;;;33.54;43.56;101429.56;10457683;28;19925;-68
2023/07/08 16:23:45;;;;;;;;;;;;;;;33.51;46.79;101421.88;10457363;28;19955;-68
2023/07/08 16:28:48;;;;;;;;;;;;;;;32.68;50.63;101428.44;10457061;28;19925;-68
2023/07/08 16:33:51;;;;;;;;;;;;;;;32.31;51.52;101430.97;10457132;28;19925;-68
2023/07/08 16:38:54;;;;;;;;;;;;;;;32.57;53.78;101433.50;10439293;28;19925;-68
2023/07/08 16:43:56;;;;;;;;;;;;;;;31.73;55.50;101429.13;10439212;28;19925;-68
2023/07/08 16:48:58;;;;;;;;;;;;;;;32.20;54.17;101419.75;10438912;28;20286;-67
2023/07/08 16:54:04;;;;;;;;;;;;;;;31.44;58.01;101431.25;10456945;28;19924;-68
2023/07/08 16:59:07;;;;;;;;;;;;;;;31.16;59.84;101436.91;10438962;28;19925;-68
2023/07/08 17:04:11;;;;;;;;;;;;;;;31.01;59.32;101437.13;10428874;28;19964;-68
2023/07/08 17:09:14;;;;;;;;;;;;;;;31.40;57.83;101432.72;10464708;28;19925;-68
2023/07/08 17:14:16;;;;;;;;;;;;;;;31.60;55.54;101432.69;10465049;28;19932;-67
2023/07/08 17:19:18;;;;;;;;;;;;;;;32.03;56.25;101414.00;10446889;28;20015;-67
2023/07/08 17:24:24;;;;;;;;;;;;;;;32.01;55.75;101412.53;10464059;28;19928;-68
2023/07/08 17:29:26;;;;;;;;;;;;;;;31.88;56.61;101418.88;10446751;28;20348;-68
2023/07/08 17:34:29;;;;;;;;;;;;;;;31.36;58.53;101417.97;10463488;28;19934;-68
2023/07/08 17:39:31;;;;;;;;;;;;;;;31.35;59.06;101416.28;10445938;28;19925;-68
2023/07/08 17:44:33;;;;;;;;;;;;;;;31.09;59.78;101421.53;10470876;22;19925;-69
2023/07/08 17:49:35;;;;;;;;;;;;;;;30.74;60.71;101423.56;10463597;28;20363;-69
2023/07/08 17:54:37;;;;;;;;;;;;;;;30.38;60.16;101419.38;10462736;28;20016;-69
2023/07/08 17:59:40;;;;;;;;;;;;;;;30.31;60.06;101424.75;10461726;28;20285;-69
2023/07/08 18:04:42;;;;;;;;;;;;;;;30.06;58.73;101427.16;10463298;28;20008;-69
2023/07/08 18:09:44;;;;;;;;;;;;;;;29.64;60.16;101426.31;10462700;28;19947;-69
2023/07/08 18:14:47;;;;;;;;;;;;;;;29.68;59.52;101432.97;10461451;28;19931;-69
2023/07/08 18:19:49;;;;;;;;;;;;;;;29.37;60.00;101445.03;10461761;28;19929;-69
2023/07/08 18:24:52;;;;;;;;;;;;;;;28.94;62.12;101447.75;10461870;28;19925;-69
2023/07/08 18:29:54;;;;;;;;;;;;;;;28.50;62.63;101456.84;10462421;28;19925;-69
2023/07/08 18:34:56;;;;;;;;;;;;;;;28.39;61.84;101458.16;10461598;28;19925;-69
2023/07/08 18:39:58;;;;;;;;;;;;;;;28.25;63.04;101467.13;10461493;28;19967;-69
2023/07/08 18:45:01;;;;;;;;;;;;;;;27.80;64.13;101481.41;10461283;28;19931;-69
2023/07/08 18:50:03;;;;;;;;;;;;;;;27.68;64.19;101485.59;10461013;28;20015;-69
2023/07/08 18:55:11;;;;;;;;;;;;;;;27.59;64.52;101482.16;10460892;28;19925;-70
2023/07/08 19:00:14;;;;;;;;;;;;;;;27.42;65.92;101494.09;10459501;28;19931;-69
2023/07/08 19:05:17;;;;;;;;;;;;;;;27.37;65.49;101481.19;10459261;28;19925;-69
2023/07/08 19:10:21;;;;;;;;;;;;;;;27.41;65.89;101487.03;10460169;28;19931;-69
2023/07/08 19:15:30;;;;;;;;;;;;;;;27.24;66.38;101497.06;10458766;28;19925;-70
2023/07/08 19:20:35;;;;;;;;;;;;;;;27.03;67.45;101495.06;10459843;28;20282;-70
2023/07/08 19:25:37;;;;;;;;;;;;;;;26.92;67.89;101493.63;10459473;28;19924;-69
2023/07/08 19:30:39;;;;;;;;;;;;;;;26.82;67.54;101499.25;10459430;28;19925;-69
2023/07/08 19:35:46;;;;;;;;;;;;;;;26.68;66.42;101502.72;10458070;28;19925;-69
2023/07/08 19:40:52;;;;;;;;;;;;;;;26.45;67.39;101494.56;10458054;28;19925;-69
2023/07/08 19:45:54;;;;;;;;;;;;;;;26.42;67.48;101509.16;10458825;28;19924;-69
2023/07/08 19:50:57;;;;;;;;;;;;;;;26.35;68.44;101516.25;10458767;28;19982;-69
2023/07/08 19:55:59;;;;;;;;;;;;;;;25.88;69.82;101522.44;10458548;28;20099;-69
2023/07/08 20:01:02;;;;;;;;;;;;;;;25.86;70.14;101519.09;10458141;28;19924;-69
2023/07/08 20:06:31;;;;;;;;;;;;;;;25.58;72.11;101524.81;10457806;28;19947;-69
2023/07/08 20:11:33;;;;;;;;;;;;;;;25.47;72.24;101525.16;10456707;28;20442;-69
2023/07/08 20:16:35;;;;;;;;;;;;;;;25.32;73.98;101527.72;10458039;28;19924;-70
2023/07/08 20:21:37;;;;;;;;;;;;;;;25.22;73.72;101523.31;10456314;28;20295;-70
2023/07/08 20:26:40;;;;;;;;;;;;;;;25.09;74.29;101535.53;10457662;28;19928;-70
2023/07/08 20:31:42;;;;;;;;;;;;;;;25.02;73.83;101536.19;10455992;28;19925;-70
2023/07/08 20:36:45;;;;;;;;;;;;;;;24.67;74.33;101535.44;10455396;28;20344;-70
2023/07/08 20:41:47;;;;;;;;;;;;;;;24.57;74.27;101537.41;10456830;28;19931;-69
2023/07/08 20:46:50;;;;;;;;;;;;;;;24.58;73.62;101544.44;10456861;28;20360;-70
2023/07/08 20:51:52;;;;;;;;;;;;;;;24.47;74.79;101548.22;10456932;28;19929;-70
2023/07/08 20:56:55;;;;;;;;;;;;;;;24.33;73.91;101554.19;10456521;28;19964;-70
2023/07/08 21:01:57;;;;;;;;;;;;;;;24.27;73.16;101558.31;10456636;28;20380;-70
2023/07/08 21:06:59;;;;;;;;;;;;;;;24.10;71.59;101561.91;10456451;28;19924;-69
2023/07/08 21:12:01;;;;;;;;;;;;;;;24.03;69.72;101572.41;10456758;28;19947;-69
2023/07/08 21:17:05;;;;;;;;;;;;;;;24.03;69.34;101580.44;10456420;28;19931;-69
2023/07/08 21:22:08;;;;;;;;;;;;;;;24.03;70.09;101585.78;10455023;28;19931;-69
2023/07/08 21:27:17;;;;;;;;;;;;;;;24.02;69.20;101589.44;10454977;28;20290;-69
2023/07/08 21:32:19;;;;;;;;;;;;;;;23.95;69.49;101587.56;10455018;28;19925;-69
2023/07/08 21:37:22;;;;;;;;;;;;;;;23.54;71.06;101580.06;10456083;28;19971;-69
2023/07/08 21:42:28;;;;;;;;;;;;;;;23.66;70.92;101580.66;10455357;28;19947;-69
2023/07/08 21:47:30;;;;;;;;;;;;;;;23.44;73.12;101587.31;10455772;28;19929;-69
2023/07/08 21:52:32;;;;;;;;;;;;;;;23.46;73.75;101572.78;10463630;28;19964;-69
2023/07/08 21:57:35;;;;;;;;;;;;;;;23.31;74.08;101579.66;10461794;28;19924;-69
2023/07/08 22:02:41;;;;;;;;;;;;;;;23.19;73.42;101579.88;10462991;28;19931;-69
2023/07/08 22:07:44;;;;;;;;;;;;;;;23.19;73.21;101579.06;10461479;28;19925;-69
2023/07/08 22:12:46;;;;;;;;;;;;;;;23.06;73.53;101592.78;10461950;28;19925;-69
2023/07/08 22:17:50;;;;;;;;;;;;;;;22.96;74.03;101594.63;10462691;28;20018;-69
2023/07/08 22:22:55;;;;;;;;;;;;;;;22.88;73.78;101597.22;10462157;28;20421;-69
2023/07/08 22:27:57;;;;;;;;;;;;;;;23.05;73.36;101593.75;10460859;28;20017;-69
2023/07/08 22:33:00;;;;;;;;;;;;;;;22.88;74.59;101594.53;10461735;28;19935;-69
2023/07/08 22:38:03;;;;;;;;;;;;;;;22.74;76.44;101590.56;10461695;28;19971;-69
2023/07/08 22:43:05;;;;;;;;;;;;;;;22.78;76.73;101598.13;10460345;28;19925;-62
2023/07/08 22:48:10;;;;;;;;;;;;;;;22.77;77.79;101603.59;10461233;28;19925;-63
2023/07/08 22:53:20;;;;;;;;;;;;;;;22.79;78.32;101606.97;10459943;28;19932;-63
2023/07/08 22:58:23;;;;;;;;;;;;;;;22.77;79.14;101608.94;10460591;28;20023;-63
2023/07/08 23:03:25;;;;;;;;;;;;;;;22.68;79.89;101610.69;10459487;28;20264;-63
2023/07/08 23:08:29;;;;;;;;;;;;;;;22.69;80.56;101614.19;10459315;28;19964;-63
2023/07/08 23:13:33;;;;;;;;;;;;;;;22.72;80.19;101613.88;10459016;28;19932;-63
2023/07/08 23:18:36;;;;;;;;;;;;;;;22.61;81.60;101615.75;10459520;28;19974;-63
2023/07/08 23:23:38;;;;;;;;;;;;;;;22.38;83.82;101625.13;10460112;28;19925;-63
2023/07/08 23:28:41;;;;;;;;;;;;;;;22.43;84.04;101631.69;10459672;28;19971;-63
2023/07/08 23:33:44;;;;;;;;;;;;;;;22.49;83.51;101637.44;10458119;28;19947;-63
2023/07/08 23:38:46;;;;;;;;;;;;;;;22.40;83.51;101620.47;10458242;28;19925;-63
2023/07/08 23:43:49;;;;;;;;;;;;;;;22.39;84.29;101624.97;10457692;28;19925;-63
2023/07/08 23:48:51;;;;;;;;;;;;;;;22.39;81.88;101624.13;10459128;28;19928;-63
2023/07/08 23:53:53;;;;;;;;;;;;;;;22.38;82.35;101625.97;10458757;28;19931;-63
2023/07/08 23:58:56;;;;;;;;;;;;;;;22.24;82.95;101621.91;10459143;28;19964;-63
